sensor_id;sensor_type;location;lat;lon;timestamp;pressure;altitude;pressure_sealevel;temperature
73937;BMP180;59249;59.736;30.568;2023-04-15T00:01:15;102448.00;;;1.30
73937;BMP180;59249;59.736;30.568;2023-04-15T00:03:46;102447.00;;;1.10
73937;BMP180;59249;59.736;30.568;2023-04-15T00:06:15;102450.00;;;1.10
73937;BMP180;59249;59.736;30.568;2023-04-15T00:08:45;102464.00;;;1.20
73937;BMP180;59249;59.736;30.568;2023-04-15T00:11:16;102454.00;;;1.10
73937;BMP180;59249;59.736;30.568;2023-04-15T00:13:46;102456.00;;;1.00
73937;BMP180;59249;59.736;30.568;2023-04-15T00:16:14;102459.00;;;1.20
73937;BMP180;59249;59.736;30.568;2023-04-15T00:18:43;102460.00;;;1.10
73937;BMP180;59249;59.736;30.568;2023-04-15T00:21:12;102454.00;;;1.10
73937;BMP180;59249;59.736;30.568;2023-04-15T00:23:41;102462.00;;;1.10
73937;BMP180;59249;59.736;30.568;2023-04-15T00:26:11;102454.00;;;1.10
73937;BMP180;59249;59.736;30.568;2023-04-15T00:28:41;102465.00;;;1.10
73937;BMP180;59249;59.736;30.568;2023-04-15T00:31:10;102458.00;;;1.00
73937;BMP180;59249;59.736;30.568;2023-04-15T00:33:39;102465.00;;;1.10
73937;BMP180;59249;59.736;30.568;2023-04-15T00:36:08;102473.00;;;1.00
73937;BMP180;59249;59.736;30.568;2023-04-15T00:38:46;102466.00;;;1.00
73937;BMP180;59249;59.736;30.568;2023-04-15T00:41:15;102479.00;;;1.10
73937;BMP180;59249;59.736;30.568;2023-04-15T00:43:46;102472.00;;;1.00
73937;BMP180;59249;59.736;30.568;2023-04-15T00:46:16;102477.00;;;1.00
73937;BMP180;59249;59.736;30.568;2023-04-15T00:48:48;102477.00;;;1.00
73937;BMP180;59249;59.736;30.568;2023-04-15T00:51:18;102478.00;;;1.00
73937;BMP180;59249;59.736;30.568;2023-04-15T00:53:47;102475.00;;;1.00
73937;BMP180;59249;59.736;30.568;2023-04-15T00:56:16;102482.00;;;0.90
73937;BMP180;59249;59.736;30.568;2023-04-15T00:58:47;102482.00;;;0.90
73937;BMP180;59249;59.736;30.568;2023-04-15T01:01:17;102481.00;;;0.90
73937;BMP180;59249;59.736;30.568;2023-04-15T01:03:49;102482.00;;;1.00
73937;BMP180;59249;59.736;30.568;2023-04-15T01:06:18;102482.00;;;0.90
73937;BMP180;59249;59.736;30.568;2023-04-15T01:08:47;102484.00;;;0.90
73937;BMP180;59249;59.736;30.568;2023-04-15T01:11:16;102480.00;;;1.00
73937;BMP180;59249;59.736;30.568;2023-04-15T01:13:48;102473.00;;;0.90
73937;BMP180;59249;59.736;30.568;2023-04-15T01:16:18;102483.00;;;0.90
73937;BMP180;59249;59.736;30.568;2023-04-15T01:18:48;102482.00;;;0.90
73937;BMP180;59249;59.736;30.568;2023-04-15T01:21:18;102475.00;;;0.90
73937;BMP180;59249;59.736;30.568;2023-04-15T01:23:48;102475.00;;;0.90
73937;BMP180;59249;59.736;30.568;2023-04-15T01:26:23;102482.00;;;0.90
73937;BMP180;59249;59.736;30.568;2023-04-15T01:28:53;102478.00;;;0.90
73937;BMP180;59249;59.736;30.568;2023-04-15T01:31:23;102487.00;;;1.00
73937;BMP180;59249;59.736;30.568;2023-04-15T01:33:52;102483.00;;;0.90
73937;BMP180;59249;59.736;30.568;2023-04-15T01:36:39;102471.00;;;0.90
73937;BMP180;59249;59.736;30.568;2023-04-15T01:39:08;102484.00;;;0.90
73937;BMP180;59249;59.736;30.568;2023-04-15T01:41:38;102480.00;;;0.90
73937;BMP180;59249;59.736;30.568;2023-04-15T01:44:09;102481.00;;;0.90
73937;BMP180;59249;59.736;30.568;2023-04-15T01:46:40;102479.00;;;0.90
73937;BMP180;59249;59.736;30.568;2023-04-15T01:49:10;102477.00;;;1.00
73937;BMP180;59249;59.736;30.568;2023-04-15T01:51:40;102474.00;;;0.90
73937;BMP180;59249;59.736;30.568;2023-04-15T01:54:10;102468.00;;;1.00
73937;BMP180;59249;59.736;30.568;2023-04-15T01:56:41;102465.00;;;0.90
73937;BMP180;59249;59.736;30.568;2023-04-15T01:59:11;102473.00;;;1.00
73937;BMP180;59249;59.736;30.568;2023-04-15T02:01:41;102478.00;;;1.00
73937;BMP180;59249;59.736;30.568;2023-04-15T02:04:11;102483.00;;;1.30
73937;BMP180;59249;59.736;30.568;2023-04-15T02:06:43;102481.00;;;1.30
73937;BMP180;59249;59.736;30.568;2023-04-15T02:09:14;102478.00;;;1.40
73937;BMP180;59249;59.736;30.568;2023-04-15T02:11:47;102480.00;;;1.40
73937;BMP180;59249;59.736;30.568;2023-04-15T02:14:18;102489.00;;;1.50
73937;BMP180;59249;59.736;30.568;2023-04-15T02:16:48;102494.00;;;1.60
73937;BMP180;59249;59.736;30.568;2023-04-15T02:19:18;102488.00;;;1.60
73937;BMP180;59249;59.736;30.568;2023-04-15T02:21:48;102486.00;;;1.60
73937;BMP180;59249;59.736;30.568;2023-04-15T02:24:18;102497.00;;;1.60
73937;BMP180;59249;59.736;30.568;2023-04-15T02:26:50;102490.00;;;1.70
73937;BMP180;59249;59.736;30.568;2023-04-15T02:29:19;102488.00;;;1.80
73937;BMP180;59249;59.736;30.568;2023-04-15T02:31:50;102485.00;;;1.80
73937;BMP180;59249;59.736;30.568;2023-04-15T02:34:20;102490.00;;;1.90
73937;BMP180;59249;59.736;30.568;2023-04-15T02:36:50;102486.00;;;1.90
73937;BMP180;59249;59.736;30.568;2023-04-15T02:39:24;102494.00;;;2.00
73937;BMP180;59249;59.736;30.568;2023-04-15T02:41:56;102492.00;;;2.10
73937;BMP180;59249;59.736;30.568;2023-04-15T02:44:27;102497.00;;;2.10
73937;BMP180;59249;59.736;30.568;2023-04-15T02:47:00;102502.00;;;2.10
73937;BMP180;59249;59.736;30.568;2023-04-15T02:49:32;102500.00;;;2.10
73937;BMP180;59249;59.736;30.568;2023-04-15T02:52:02;102497.00;;;2.20
73937;BMP180;59249;59.736;30.568;2023-04-15T02:54:31;102501.00;;;2.20
73937;BMP180;59249;59.736;30.568;2023-04-15T02:57:03;102500.00;;;2.40
73937;BMP180;59249;59.736;30.568;2023-04-15T02:59:34;102507.00;;;2.50
73937;BMP180;59249;59.736;30.568;2023-04-15T03:02:06;102516.00;;;2.50
73937;BMP180;59249;59.736;30.568;2023-04-15T03:04:38;102509.00;;;2.40
73937;BMP180;59249;59.736;30.568;2023-04-15T03:07:08;102509.00;;;2.50
73937;BMP180;59249;59.736;30.568;2023-04-15T03:09:38;102523.00;;;2.60
73937;BMP180;59249;59.736;30.568;2023-04-15T03:12:10;102514.00;;;2.60
73937;BMP180;59249;59.736;30.568;2023-04-15T03:14:39;102518.00;;;2.60
73937;BMP180;59249;59.736;30.568;2023-04-15T03:17:09;102520.00;;;2.60
73937;BMP180;59249;59.736;30.568;2023-04-15T03:19:39;102522.00;;;2.50
73937;BMP180;59249;59.736;30.568;2023-04-15T03:22:09;102520.00;;;2.70
73937;BMP180;59249;59.736;30.568;2023-04-15T03:24:39;102521.00;;;2.80
73937;BMP180;59249;59.736;30.568;2023-04-15T03:27:10;102519.00;;;2.90
73937;BMP180;59249;59.736;30.568;2023-04-15T03:29:41;102521.00;;;2.90
73937;BMP180;59249;59.736;30.568;2023-04-15T03:32:11;102520.00;;;3.00
73937;BMP180;59249;59.736;30.568;2023-04-15T03:34:42;102519.00;;;2.80
73937;BMP180;59249;59.736;30.568;2023-04-15T03:37:12;102529.00;;;2.80
73937;BMP180;59249;59.736;30.568;2023-04-15T03:39:42;102526.00;;;2.90
73937;BMP180;59249;59.736;30.568;2023-04-15T03:42:13;102522.00;;;2.90
73937;BMP180;59249;59.736;30.568;2023-04-15T03:44:43;102529.00;;;3.00
73937;BMP180;59249;59.736;30.568;2023-04-15T03:47:13;102533.00;;;3.00
73937;BMP180;59249;59.736;30.568;2023-04-15T03:49:43;102527.00;;;3.00
73937;BMP180;59249;59.736;30.568;2023-04-15T03:52:14;102535.00;;;3.00
73937;BMP180;59249;59.736;30.568;2023-04-15T03:54:44;102535.00;;;3.10
73937;BMP180;59249;59.736;30.568;2023-04-15T03:57:16;102537.00;;;3.10
73937;BMP180;59249;59.736;30.568;2023-04-15T03:59:46;102535.00;;;3.20
73937;BMP180;59249;59.736;30.568;2023-04-15T04:02:15;102533.00;;;3.20
73937;BMP180;59249;59.736;30.568;2023-04-15T04:04:46;102538.00;;;3.20
73937;BMP180;59249;59.736;30.568;2023-04-15T04:07:16;102529.00;;;3.20
73937;BMP180;59249;59.736;30.568;2023-04-15T04:09:46;102536.00;;;3.20
73937;BMP180;59249;59.736;30.568;2023-04-15T04:12:18;102527.00;;;3.30
73937;BMP180;59249;59.736;30.568;2023-04-15T04:14:48;102544.00;;;3.40
73937;BMP180;59249;59.736;30.568;2023-04-15T04:17:18;102550.00;;;3.40
73937;BMP180;59249;59.736;30.568;2023-04-15T04:19:48;102539.00;;;3.40
73937;BMP180;59249;59.736;30.568;2023-04-15T04:22:21;102538.00;;;3.40
73937;BMP180;59249;59.736;30.568;2023-04-15T04:24:52;102543.00;;;3.50
73937;BMP180;59249;59.736;30.568;2023-04-15T04:27:23;102539.00;;;3.60
73937;BMP180;59249;59.736;30.568;2023-04-15T04:29:53;102540.00;;;3.70
73937;BMP180;59249;59.736;30.568;2023-04-15T04:32:24;102546.00;;;3.70
73937;BMP180;59249;59.736;30.568;2023-04-15T04:34:54;102538.00;;;3.60
73937;BMP180;59249;59.736;30.568;2023-04-15T04:37:24;102543.00;;;3.70
73937;BMP180;59249;59.736;30.568;2023-04-15T04:39:55;102537.00;;;3.70
73937;BMP180;59249;59.736;30.568;2023-04-15T04:42:26;102541.00;;;3.90
73937;BMP180;59249;59.736;30.568;2023-04-15T04:44:58;102534.00;;;4.00
73937;BMP180;59249;59.736;30.568;2023-04-15T04:47:30;102546.00;;;4.00
73937;BMP180;59249;59.736;30.568;2023-04-15T04:50:00;102538.00;;;4.10
73937;BMP180;59249;59.736;30.568;2023-04-15T04:52:30;102547.00;;;4.10
73937;BMP180;59249;59.736;30.568;2023-04-15T04:55:00;102552.00;;;4.20
73937;BMP180;59249;59.736;30.568;2023-04-15T04:57:31;102552.00;;;4.20
73937;BMP180;59249;59.736;30.568;2023-04-15T05:00:03;102548.00;;;4.20
73937;BMP180;59249;59.736;30.568;2023-04-15T05:02:35;102543.00;;;4.20
73937;BMP180;59249;59.736;30.568;2023-04-15T05:05:06;102549.00;;;4.30
73937;BMP180;59249;59.736;30.568;2023-04-15T05:07:38;102553.00;;;4.40
73937;BMP180;59249;59.736;30.568;2023-04-15T05:10:09;102546.00;;;4.40
73937;BMP180;59249;59.736;30.568;2023-04-15T05:12:40;102545.00;;;4.50
73937;BMP180;59249;59.736;30.568;2023-04-15T05:15:10;102557.00;;;4.50
73937;BMP180;59249;59.736;30.568;2023-04-15T05:17:43;102558.00;;;4.70
73937;BMP180;59249;59.736;30.568;2023-04-15T05:20:15;102555.00;;;4.90
73937;BMP180;59249;59.736;30.568;2023-04-15T05:22:49;102556.00;;;5.00
73937;BMP180;59249;59.736;30.568;2023-04-15T05:25:28;102565.00;;;5.00
73937;BMP180;59249;59.736;30.568;2023-04-15T05:27:59;102556.00;;;5.10
73937;BMP180;59249;59.736;30.568;2023-04-15T05:30:29;102556.00;;;5.10
73937;BMP180;59249;59.736;30.568;2023-04-15T05:32:59;102562.00;;;5.20
73937;BMP180;59249;59.736;30.568;2023-04-15T05:35:29;102553.00;;;5.30
73937;BMP180;59249;59.736;30.568;2023-04-15T05:37:59;102560.00;;;5.30
73937;BMP180;59249;59.736;30.568;2023-04-15T05:40:29;102561.00;;;5.30
73937;BMP180;59249;59.736;30.568;2023-04-15T05:43:01;102559.00;;;5.30
73937;BMP180;59249;59.736;30.568;2023-04-15T05:45:30;102560.00;;;5.20
73937;BMP180;59249;59.736;30.568;2023-04-15T05:48:00;102559.00;;;5.40
73937;BMP180;59249;59.736;30.568;2023-04-15T05:50:30;102568.00;;;5.50
73937;BMP180;59249;59.736;30.568;2023-04-15T05:53:00;102564.00;;;5.70
73937;BMP180;59249;59.736;30.568;2023-04-15T05:55:30;102555.00;;;5.50
73937;BMP180;59249;59.736;30.568;2023-04-15T05:58:01;102570.00;;;5.70
73937;BMP180;59249;59.736;30.568;2023-04-15T06:00:31;102570.00;;;5.80
73937;BMP180;59249;59.736;30.568;2023-04-15T06:03:02;102568.00;;;5.80
73937;BMP180;59249;59.736;30.568;2023-04-15T06:05:32;102569.00;;;5.90
73937;BMP180;59249;59.736;30.568;2023-04-15T06:08:02;102571.00;;;5.90
73937;BMP180;59249;59.736;30.568;2023-04-15T06:10:34;102578.00;;;5.90
73937;BMP180;59249;59.736;30.568;2023-04-15T06:13:06;102562.00;;;5.80
73937;BMP180;59249;59.736;30.568;2023-04-15T06:15:36;102570.00;;;5.80
73937;BMP180;59249;59.736;30.568;2023-04-15T06:18:06;102576.00;;;5.90
73937;BMP180;59249;59.736;30.568;2023-04-15T06:20:35;102579.00;;;5.90
73937;BMP180;59249;59.736;30.568;2023-04-15T06:23:05;102582.00;;;5.90
73937;BMP180;59249;59.736;30.568;2023-04-15T06:25:35;102577.00;;;5.90
73937;BMP180;59249;59.736;30.568;2023-04-15T06:28:07;102580.00;;;5.80
73937;BMP180;59249;59.736;30.568;2023-04-15T06:30:37;102569.00;;;5.90
73937;BMP180;59249;59.736;30.568;2023-04-15T06:33:07;102588.00;;;5.90
73937;BMP180;59249;59.736;30.568;2023-04-15T06:35:37;102579.00;;;5.80
73937;BMP180;59249;59.736;30.568;2023-04-15T06:38:08;102579.00;;;5.90
73937;BMP180;59249;59.736;30.568;2023-04-15T06:40:38;102577.00;;;5.90
73937;BMP180;59249;59.736;30.568;2023-04-15T06:43:09;102578.00;;;5.80
73937;BMP180;59249;59.736;30.568;2023-04-15T06:45:39;102581.00;;;6.00
73937;BMP180;59249;59.736;30.568;2023-04-15T06:48:09;102579.00;;;6.10
73937;BMP180;59249;59.736;30.568;2023-04-15T06:50:42;102583.00;;;6.20
73937;BMP180;59249;59.736;30.568;2023-04-15T06:53:12;102582.00;;;6.00
73937;BMP180;59249;59.736;30.568;2023-04-15T06:55:43;102586.00;;;6.20
73937;BMP180;59249;59.736;30.568;2023-04-15T06:58:14;102581.00;;;6.20
73937;BMP180;59249;59.736;30.568;2023-04-15T07:00:44;102591.00;;;6.20
73937;BMP180;59249;59.736;30.568;2023-04-15T07:03:15;102591.00;;;6.40
73937;BMP180;59249;59.736;30.568;2023-04-15T07:05:44;102587.00;;;6.20
73937;BMP180;59249;59.736;30.568;2023-04-15T07:08:14;102594.00;;;6.30
73937;BMP180;59249;59.736;30.568;2023-04-15T07:10:45;102595.00;;;6.20
73937;BMP180;59249;59.736;30.568;2023-04-15T07:13:16;102580.00;;;6.30
73937;BMP180;59249;59.736;30.568;2023-04-15T07:15:46;102601.00;;;6.50
73937;BMP180;59249;59.736;30.568;2023-04-15T07:18:16;102605.00;;;6.50
73937;BMP180;59249;59.736;30.568;2023-04-15T07:20:46;102590.00;;;6.50
73937;BMP180;59249;59.736;30.568;2023-04-15T07:23:16;102613.00;;;6.60
73937;BMP180;59249;59.736;30.568;2023-04-15T07:25:45;102604.00;;;6.70
73937;BMP180;59249;59.736;30.568;2023-04-15T07:28:17;102603.00;;;6.90
73937;BMP180;59249;59.736;30.568;2023-04-15T07:30:47;102610.00;;;6.90
73937;BMP180;59249;59.736;30.568;2023-04-15T07:33:17;102607.00;;;6.90
73937;BMP180;59249;59.736;30.568;2023-04-15T07:35:47;102609.00;;;7.00
73937;BMP180;59249;59.736;30.568;2023-04-15T07:38:18;102609.00;;;6.90
73937;BMP180;59249;59.736;30.568;2023-04-15T07:40:48;102599.00;;;7.00
73937;BMP180;59249;59.736;30.568;2023-04-15T07:43:19;102609.00;;;7.20
73937;BMP180;59249;59.736;30.568;2023-04-15T07:45:49;102610.00;;;7.20
73937;BMP180;59249;59.736;30.568;2023-04-15T07:48:20;102607.00;;;7.30
73937;BMP180;59249;59.736;30.568;2023-04-15T07:50:50;102620.00;;;7.50
73937;BMP180;59249;59.736;30.568;2023-04-15T07:53:19;102617.00;;;7.50
73937;BMP180;59249;59.736;30.568;2023-04-15T07:55:49;102615.00;;;7.60
73937;BMP180;59249;59.736;30.568;2023-04-15T07:58:20;102615.00;;;7.70
73937;BMP180;59249;59.736;30.568;2023-04-15T08:00:50;102613.00;;;7.70
73937;BMP180;59249;59.736;30.568;2023-04-15T08:03:22;102619.00;;;7.90
73937;BMP180;59249;59.736;30.568;2023-04-15T08:05:52;102621.00;;;7.90
73937;BMP180;59249;59.736;30.568;2023-04-15T08:08:22;102611.00;;;8.10
73937;BMP180;59249;59.736;30.568;2023-04-15T08:10:52;102609.00;;;7.80
73937;BMP180;59249;59.736;30.568;2023-04-15T08:13:24;102613.00;;;7.60
73937;BMP180;59249;59.736;30.568;2023-04-15T08:16:12;102614.00;;;7.50
73937;BMP180;59249;59.736;30.568;2023-04-15T08:18:46;102609.00;;;7.50
73937;BMP180;59249;59.736;30.568;2023-04-15T08:21:41;102611.00;;;7.30
73937;BMP180;59249;59.736;30.568;2023-04-15T08:24:11;102605.00;;;7.50
73937;BMP180;59249;59.736;30.568;2023-04-15T08:26:41;102607.00;;;7.50
73937;BMP180;59249;59.736;30.568;2023-04-15T08:29:12;102606.00;;;7.60
73937;BMP180;59249;59.736;30.568;2023-04-15T08:31:43;102604.00;;;7.60
73937;BMP180;59249;59.736;30.568;2023-04-15T08:34:14;102602.00;;;7.50
73937;BMP180;59249;59.736;30.568;2023-04-15T08:36:45;102593.00;;;7.70
73937;BMP180;59249;59.736;30.568;2023-04-15T08:39:15;102590.00;;;7.50
73937;BMP180;59249;59.736;30.568;2023-04-15T08:41:46;102600.00;;;7.70
73937;BMP180;59249;59.736;30.568;2023-04-15T08:44:18;102598.00;;;7.60
73937;BMP180;59249;59.736;30.568;2023-04-15T08:46:50;102598.00;;;7.80
73937;BMP180;59249;59.736;30.568;2023-04-15T08:49:25;102601.00;;;8.10
73937;BMP180;59249;59.736;30.568;2023-04-15T08:51:58;102597.00;;;8.10
73937;BMP180;59249;59.736;30.568;2023-04-15T08:54:29;102595.00;;;7.90
73937;BMP180;59249;59.736;30.568;2023-04-15T08:56:59;102594.00;;;7.80
73937;BMP180;59249;59.736;30.568;2023-04-15T08:59:31;102598.00;;;7.80
73937;BMP180;59249;59.736;30.568;2023-04-15T09:02:01;102590.00;;;8.00
73937;BMP180;59249;59.736;30.568;2023-04-15T09:04:32;102586.00;;;8.00
73937;BMP180;59249;59.736;30.568;2023-04-15T09:07:02;102587.00;;;8.10
73937;BMP180;59249;59.736;30.568;2023-04-15T09:09:32;102590.00;;;8.30
73937;BMP180;59249;59.736;30.568;2023-04-15T09:12:04;102588.00;;;8.60
73937;BMP180;59249;59.736;30.568;2023-04-15T09:14:35;102586.00;;;8.70
73937;BMP180;59249;59.736;30.568;2023-04-15T09:17:09;102585.00;;;8.70
73937;BMP180;59249;59.736;30.568;2023-04-15T09:19:39;102590.00;;;8.90
73937;BMP180;59249;59.736;30.568;2023-04-15T09:22:09;102592.00;;;8.70
73937;BMP180;59249;59.736;30.568;2023-04-15T09:24:39;102584.00;;;8.50
73937;BMP180;59249;59.736;30.568;2023-04-15T09:27:10;102595.00;;;8.70
73937;BMP180;59249;59.736;30.568;2023-04-15T09:29:49;102593.00;;;8.80
73937;BMP180;59249;59.736;30.568;2023-04-15T09:32:19;102599.00;;;8.90
73937;BMP180;59249;59.736;30.568;2023-04-15T09:34:51;102594.00;;;8.90
73937;BMP180;59249;59.736;30.568;2023-04-15T09:37:33;102600.00;;;9.00
73937;BMP180;59249;59.736;30.568;2023-04-15T09:40:05;102598.00;;;9.00
73937;BMP180;59249;59.736;30.568;2023-04-15T09:42:53;102591.00;;;8.80
73937;BMP180;59249;59.736;30.568;2023-04-15T09:45:25;102586.00;;;8.90
73937;BMP180;59249;59.736;30.568;2023-04-15T09:47:58;102594.00;;;8.90
73937;BMP180;59249;59.736;30.568;2023-04-15T09:50:28;102600.00;;;9.00
73937;BMP180;59249;59.736;30.568;2023-04-15T09:53:02;102606.00;;;9.00
73937;BMP180;59249;59.736;30.568;2023-04-15T09:55:32;102593.00;;;8.70
73937;BMP180;59249;59.736;30.568;2023-04-15T09:58:07;102590.00;;;8.70
73937;BMP180;59249;59.736;30.568;2023-04-15T10:00:40;102594.00;;;8.80
73937;BMP180;59249;59.736;30.568;2023-04-15T10:03:10;102603.00;;;8.80
73937;BMP180;59249;59.736;30.568;2023-04-15T10:05:41;102596.00;;;8.80
73937;BMP180;59249;59.736;30.568;2023-04-15T10:08:12;102594.00;;;8.80
73937;BMP180;59249;59.736;30.568;2023-04-15T10:10:44;102595.00;;;8.80
73937;BMP180;59249;59.736;30.568;2023-04-15T10:13:17;102583.00;;;8.70
73937;BMP180;59249;59.736;30.568;2023-04-15T10:15:51;102592.00;;;8.90
73937;BMP180;59249;59.736;30.568;2023-04-15T10:18:26;102593.00;;;9.00
73937;BMP180;59249;59.736;30.568;2023-04-15T10:20:58;102590.00;;;9.10
73937;BMP180;59249;59.736;30.568;2023-04-15T10:23:29;102585.00;;;9.10
73937;BMP180;59249;59.736;30.568;2023-04-15T10:26:00;102580.00;;;9.00
73937;BMP180;59249;59.736;30.568;2023-04-15T10:28:33;102584.00;;;9.10
73937;BMP180;59249;59.736;30.568;2023-04-15T10:31:05;102584.00;;;9.20
73937;BMP180;59249;59.736;30.568;2023-04-15T10:33:35;102581.00;;;9.30
73937;BMP180;59249;59.736;30.568;2023-04-15T10:36:06;102580.00;;;9.40
73937;BMP180;59249;59.736;30.568;2023-04-15T10:38:37;102583.00;;;9.30
73937;BMP180;59249;59.736;30.568;2023-04-15T10:41:18;102574.00;;;9.20
73937;BMP180;59249;59.736;30.568;2023-04-15T10:43:51;102574.00;;;9.20
73937;BMP180;59249;59.736;30.568;2023-04-15T10:46:34;102580.00;;;9.30
73937;BMP180;59249;59.736;30.568;2023-04-15T10:49:07;102573.00;;;9.40
73937;BMP180;59249;59.736;30.568;2023-04-15T10:51:41;102566.00;;;9.50
73937;BMP180;59249;59.736;30.568;2023-04-15T10:54:14;102561.00;;;9.50
73937;BMP180;59249;59.736;30.568;2023-04-15T10:56:45;102571.00;;;9.40
73937;BMP180;59249;59.736;30.568;2023-04-15T10:59:20;102570.00;;;9.40
73937;BMP180;59249;59.736;30.568;2023-04-15T11:01:53;102571.00;;;9.50
73937;BMP180;59249;59.736;30.568;2023-04-15T11:04:53;102567.00;;;9.70
73937;BMP180;59249;59.736;30.568;2023-04-15T11:07:46;102561.00;;;9.90
73937;BMP180;59249;59.736;30.568;2023-04-15T11:10:51;102558.00;;;10.20
73937;BMP180;59249;59.736;30.568;2023-04-15T11:13:26;102558.00;;;10.30
73937;BMP180;59249;59.736;30.568;2023-04-15T11:15:59;102559.00;;;10.30
73937;BMP180;59249;59.736;30.568;2023-04-15T11:18:33;102560.00;;;10.40
73937;BMP180;59249;59.736;30.568;2023-04-15T11:21:06;102570.00;;;10.50
73937;BMP180;59249;59.736;30.568;2023-04-15T11:23:38;102568.00;;;10.50
73937;BMP180;59249;59.736;30.568;2023-04-15T11:26:11;102547.00;;;10.50
73937;BMP180;59249;59.736;30.568;2023-04-15T11:28:43;102560.00;;;10.60
73937;BMP180;59249;59.736;30.568;2023-04-15T11:31:15;102553.00;;;10.70
73937;BMP180;59249;59.736;30.568;2023-04-15T11:33:55;102557.00;;;10.70
73937;BMP180;59249;59.736;30.568;2023-04-15T11:36:27;102562.00;;;10.80
73937;BMP180;59249;59.736;30.568;2023-04-15T11:38:59;102545.00;;;10.80
73937;BMP180;59249;59.736;30.568;2023-04-15T11:41:29;102555.00;;;10.80
73937;BMP180;59249;59.736;30.568;2023-04-15T11:43:59;102556.00;;;10.90
73937;BMP180;59249;59.736;30.568;2023-04-15T11:46:29;102555.00;;;11.00
73937;BMP180;59249;59.736;30.568;2023-04-15T11:49:01;102560.00;;;11.10
73937;BMP180;59249;59.736;30.568;2023-04-15T11:51:33;102547.00;;;11.00
73937;BMP180;59249;59.736;30.568;2023-04-15T11:54:03;102549.00;;;11.10
73937;BMP180;59249;59.736;30.568;2023-04-15T11:56:32;102550.00;;;10.90
73937;BMP180;59249;59.736;30.568;2023-04-15T11:59:01;102555.00;;;11.10
73937;BMP180;59249;59.736;30.568;2023-04-15T12:01:31;102552.00;;;11.10
73937;BMP180;59249;59.736;30.568;2023-04-15T12:04:10;102542.00;;;11.10
73937;BMP180;59249;59.736;30.568;2023-04-15T12:06:39;102553.00;;;11.00
73937;BMP180;59249;59.736;30.568;2023-04-15T12:09:09;102549.00;;;11.00
73937;BMP180;59249;59.736;30.568;2023-04-15T12:11:44;102549.00;;;10.90
73937;BMP180;59249;59.736;30.568;2023-04-15T12:14:23;102547.00;;;10.90
73937;BMP180;59249;59.736;30.568;2023-04-15T12:16:54;102543.00;;;10.80
73937;BMP180;59249;59.736;30.568;2023-04-15T12:19:29;102542.00;;;10.80
73937;BMP180;59249;59.736;30.568;2023-04-15T12:22:01;102537.00;;;10.80
73937;BMP180;59249;59.736;30.568;2023-04-15T12:24:32;102539.00;;;10.90
73937;BMP180;59249;59.736;30.568;2023-04-15T12:27:03;102537.00;;;10.90
73937;BMP180;59249;59.736;30.568;2023-04-15T12:29:34;102543.00;;;10.90
73937;BMP180;59249;59.736;30.568;2023-04-15T12:32:05;102536.00;;;11.00
73937;BMP180;59249;59.736;30.568;2023-04-15T12:34:38;102525.00;;;10.90
73937;BMP180;59249;59.736;30.568;2023-04-15T12:37:09;102536.00;;;11.00
73937;BMP180;59249;59.736;30.568;2023-04-15T12:39:40;102527.00;;;11.00
73937;BMP180;59249;59.736;30.568;2023-04-15T12:42:11;102524.00;;;11.00
73937;BMP180;59249;59.736;30.568;2023-04-15T12:44:40;102528.00;;;11.00
73937;BMP180;59249;59.736;30.568;2023-04-15T12:47:11;102525.00;;;11.20
73937;BMP180;59249;59.736;30.568;2023-04-15T12:49:42;102523.00;;;11.30
73937;BMP180;59249;59.736;30.568;2023-04-15T12:52:11;102529.00;;;11.40
73937;BMP180;59249;59.736;30.568;2023-04-15T12:54:39;102521.00;;;11.30
73937;BMP180;59249;59.736;30.568;2023-04-15T12:57:08;102531.00;;;11.40
73937;BMP180;59249;59.736;30.568;2023-04-15T12:59:37;102522.00;;;11.50
73937;BMP180;59249;59.736;30.568;2023-04-15T13:02:05;102517.00;;;11.50
73937;BMP180;59249;59.736;30.568;2023-04-15T13:04:35;102520.00;;;11.50
73937;BMP180;59249;59.736;30.568;2023-04-15T13:07:05;102513.00;;;11.20
73937;BMP180;59249;59.736;30.568;2023-04-15T13:09:34;102513.00;;;11.30
73937;BMP180;59249;59.736;30.568;2023-04-15T13:12:03;102513.00;;;11.20
73937;BMP180;59249;59.736;30.568;2023-04-15T13:14:31;102511.00;;;11.10
73937;BMP180;59249;59.736;30.568;2023-04-15T13:17:00;102508.00;;;11.30
73937;BMP180;59249;59.736;30.568;2023-04-15T13:19:35;102518.00;;;11.20
73937;BMP180;59249;59.736;30.568;2023-04-15T13:22:05;102508.00;;;11.10
73937;BMP180;59249;59.736;30.568;2023-04-15T13:24:34;102511.00;;;11.10
73937;BMP180;59249;59.736;30.568;2023-04-15T13:27:03;102511.00;;;10.90
73937;BMP180;59249;59.736;30.568;2023-04-15T13:29:33;102512.00;;;10.80
73937;BMP180;59249;59.736;30.568;2023-04-15T13:32:01;102511.00;;;10.90
73937;BMP180;59249;59.736;30.568;2023-04-15T13:34:30;102497.00;;;10.90
73937;BMP180;59249;59.736;30.568;2023-04-15T13:37:05;102501.00;;;10.80
73937;BMP180;59249;59.736;30.568;2023-04-15T13:39:34;102494.00;;;10.70
73937;BMP180;59249;59.736;30.568;2023-04-15T13:42:03;102489.00;;;10.60
73937;BMP180;59249;59.736;30.568;2023-04-15T13:44:31;102489.00;;;10.70
73937;BMP180;59249;59.736;30.568;2023-04-15T13:47:00;102484.00;;;10.50
73937;BMP180;59249;59.736;30.568;2023-04-15T13:49:29;102481.00;;;10.50
73937;BMP180;59249;59.736;30.568;2023-04-15T13:51:58;102480.00;;;10.50
73937;BMP180;59249;59.736;30.568;2023-04-15T13:54:28;102480.00;;;10.50
73937;BMP180;59249;59.736;30.568;2023-04-15T13:57:04;102469.00;;;10.50
73937;BMP180;59249;59.736;30.568;2023-04-15T13:59:33;102468.00;;;10.60
73937;BMP180;59249;59.736;30.568;2023-04-15T14:02:02;102471.00;;;10.50
73937;BMP180;59249;59.736;30.568;2023-04-15T14:04:31;102469.00;;;10.50
73937;BMP180;59249;59.736;30.568;2023-04-15T14:07:00;102475.00;;;10.50
73937;BMP180;59249;59.736;30.568;2023-04-15T14:09:32;102466.00;;;10.40
73937;BMP180;59249;59.736;30.568;2023-04-15T14:12:02;102462.00;;;10.40
73937;BMP180;59249;59.736;30.568;2023-04-15T14:14:31;102454.00;;;10.50
73937;BMP180;59249;59.736;30.568;2023-04-15T14:17:01;102449.00;;;10.40